Time;durP1;ratioP1;P1;durP2;ratioP2;P2;SDS_P1;SDS_P2;PMS_P1;PMS_P2;Temp;Humidity;BMP_temperature;BMP_pressure;BME280_temperature;BME280_humidity;BME280_pressure;Samples;Min_cycle;Max_cycle;Signal;HPM_P1;HPM_P2
2023/07/21 00:01:38;;;;;;;9.40;6.47;;;16.20;99.90;;;;;;5045656;28;20025;-55
2023/07/21 00:04:04;;;;;;;10.05;6.85;;;16.20;99.90;;;;;;5042042;28;20127;-54
2023/07/21 00:06:30;;;;;;;7.50;5.95;;;16.20;99.90;;;;;;5042083;28;20065;-55
2023/07/21 00:08:55;;;;;;;7.20;6.03;;;16.20;99.90;;;;;;5042122;28;20037;-54
2023/07/21 00:11:21;;;;;;;8.82;6.30;;;16.20;99.90;;;;;;5044807;28;20041;-56
2023/07/21 00:13:47;;;;;;;8.32;6.22;;;16.20;99.90;;;;;;5032641;28;20029;-53
2023/07/21 00:16:12;;;;;;;6.88;6.03;;;16.10;99.90;;;;;;5031296;28;20036;-55
2023/07/21 00:18:40;;;;;;;8.38;6.10;;;16.10;99.90;;;;;;5034451;28;20124;-58
2023/07/21 00:21:06;;;;;;;7.03;6.32;;;16.00;99.90;;;;;;5035432;28;20055;-57
2023/07/21 00:23:31;;;;;;;7.65;6.53;;;16.00;99.90;;;;;;5039129;28;20225;-55
2023/07/21 00:25:58;;;;;;;9.13;6.68;;;16.00;99.90;;;;;;5037800;28;20064;-57
2023/07/21 00:28:25;;;;;;;8.65;6.95;;;16.00;99.90;;;;;;5038636;28;20419;-61
2023/07/21 00:30:51;;;;;;;8.50;6.72;;;15.90;99.90;;;;;;5041778;28;20029;-56
2023/07/21 00:33:16;;;;;;;9.77;7.13;;;15.80;99.90;;;;;;5039148;28;20120;-55
2023/07/21 00:35:42;;;;;;;8.13;7.15;;;15.80;99.90;;;;;;5043905;28;20029;-55
2023/07/21 00:38:08;;;;;;;10.05;8.07;;;15.80;99.90;;;;;;5038519;28;20492;-55
2023/07/21 00:40:37;;;;;;;8.90;7.10;;;15.80;99.90;;;;;;5041389;28;20040;-55
2023/07/21 00:43:03;;;;;;;8.48;7.10;;;15.80;99.90;;;;;;5039583;28;20071;-55
2023/07/21 00:45:33;;;;;;;8.57;6.65;;;15.70;99.90;;;;;;5039433;28;20037;-55
2023/07/21 00:48:05;;;;;;;8.60;7.28;;;15.70;99.90;;;;;;5036960;28;20402;-56
2023/07/21 00:50:31;;;;;;;9.43;7.50;;;15.70;99.90;;;;;;5037053;28;20064;-55
2023/07/21 00:52:58;;;;;;;11.00;8.13;;;15.70;99.90;;;;;;5038792;28;20033;-53
2023/07/21 00:55:24;;;;;;;11.15;7.57;;;15.70;99.90;;;;;;5041794;28;20033;-59
2023/07/21 00:57:50;;;;;;;8.90;7.60;;;15.70;99.90;;;;;;5039156;28;20037;-55
2023/07/21 01:00:16;;;;;;;10.13;7.90;;;15.70;99.90;;;;;;5042312;28;20037;-56
2023/07/21 01:02:41;;;;;;;10.88;8.50;;;15.70;99.90;;;;;;5041580;28;20489;-55
2023/07/21 01:05:08;;;;;;;10.15;8.20;;;15.70;99.90;;;;;;5035888;28;20037;-55
2023/07/21 01:07:36;;;;;;;9.38;8.30;;;15.70;99.90;;;;;;5034053;28;20356;-54
2023/07/21 01:10:02;;;;;;;10.85;8.35;;;15.70;99.90;;;;;;5041382;28;20033;-55
2023/07/21 01:12:28;;;;;;;8.98;7.53;;;15.70;99.90;;;;;;5042716;28;20482;-55
2023/07/21 01:14:54;;;;;;;12.57;8.30;;;15.70;99.90;;;;;;5037467;28;20115;-55
2023/07/21 01:17:20;;;;;;;9.73;8.18;;;15.70;99.90;;;;;;5043536;28;20116;-54
2023/07/21 01:19:49;;;;;;;11.27;9.02;;;15.70;99.90;;;;;;5037024;28;20484;-55
2023/07/21 01:22:44;;;;;;;13.90;8.80;;;15.60;99.90;;;;;;5037359;28;20112;-55
2023/07/21 01:25:11;;;;;;;11.95;8.73;;;15.60;99.90;;;;;;5023871;28;20334;-55
2023/07/21 01:27:39;;;;;;;11.02;9.93;;;15.60;99.90;;;;;;5032140;28;20550;-55
2023/07/21 01:30:13;;;;;;;9.57;8.32;;;15.60;99.90;;;;;;5036534;28;20030;-59
2023/07/21 01:32:40;;;;;;;11.23;8.38;;;15.70;99.90;;;;;;5040199;28;20030;-55
2023/07/21 01:35:08;;;;;;;12.85;10.82;;;15.70;99.90;;;;;;5039492;28;20077;-56
2023/07/21 01:37:39;;;;;;;11.65;8.40;;;15.70;99.90;;;;;;5035010;28;20055;-54
2023/07/21 01:40:09;;;;;;;13.25;9.93;;;15.70;99.90;;;;;;5040820;28;20044;-56
2023/07/21 01:42:35;;;;;;;11.20;9.80;;;15.70;99.90;;;;;;5036098;28;20041;-55
2023/07/21 01:45:02;;;;;;;11.85;9.73;;;15.70;99.90;;;;;;5032630;28;20091;-55
2023/07/21 01:47:31;;;;;;;10.98;9.15;;;15.70;99.90;;;;;;5039445;28;20041;-55
2023/07/21 01:49:57;;;;;;;12.23;10.27;;;15.60;99.90;;;;;;5041308;28;20060;-55
2023/07/21 01:52:23;;;;;;;11.77;9.85;;;15.60;99.90;;;;;;5039494;28;20039;-57
2023/07/21 01:54:56;;;;;;;12.18;9.75;;;15.60;99.90;;;;;;5037717;28;20028;-55
2023/07/21 01:57:29;;;;;;;15.15;11.57;;;15.60;99.90;;;;;;5037199;28;20059;-54
2023/07/21 01:59:56;;;;;;;17.98;13.48;;;15.50;99.90;;;;;;5039614;28;20533;-55
2023/07/21 02:02:22;;;;;;;20.20;15.25;;;15.20;99.90;;;;;;5037432;28;20045;-54
2023/07/21 02:04:53;;;;;;;20.10;15.82;;;15.20;99.90;;;;;;5039703;28;20060;-55
2023/07/21 02:07:20;;;;;;;18.27;15.65;;;15.30;99.90;;;;;;5026718;28;20025;-54
2023/07/21 02:09:51;;;;;;;21.38;17.42;;;15.40;99.90;;;;;;5036093;28;20033;-54
2023/07/21 02:12:17;;;;;;;21.63;17.20;;;15.20;99.90;;;;;;5036717;28;20041;-55
2023/07/21 02:14:43;;;;;;;19.92;17.02;;;15.20;99.90;;;;;;5030341;28;20029;-54
2023/07/21 02:17:08;;;;;;;20.42;17.90;;;15.00;99.90;;;;;;5035832;28;20504;-55
2023/07/21 02:19:34;;;;;;;21.55;17.15;;;15.40;99.90;;;;;;5037698;28;20032;-55
2023/07/21 02:22:00;;;;;;;22.70;17.45;;;15.40;99.90;;;;;;5036821;28;20037;-54
2023/07/21 02:24:26;;;;;;;22.00;16.23;;;15.40;99.90;;;;;;5021657;28;20064;-55
2023/07/21 02:26:53;;;;;;;20.17;17.98;;;15.50;99.90;;;;;;5045256;28;20089;-55
2023/07/21 02:29:19;;;;;;;23.92;16.83;;;15.50;99.90;;;;;;5039056;28;20033;-55
2023/07/21 02:31:45;;;;;;;17.23;15.43;;;15.60;99.90;;;;;;5040640;28;20455;-55
2023/07/21 02:34:11;;;;;;;19.85;15.32;;;15.50;99.90;;;;;;5044558;28;20037;-54
2023/07/21 02:36:37;;;;;;;17.88;15.27;;;15.40;99.90;;;;;;5036519;28;20037;-54
2023/07/21 02:39:04;;;;;;;17.42;14.48;;;15.40;99.90;;;;;;5046332;28;20033;-55
2023/07/21 02:41:30;;;;;;;18.30;15.90;;;15.40;99.90;;;;;;5044559;28;20072;-54
2023/07/21 02:43:55;;;;;;;11.43;10.30;;;15.30;99.90;;;;;;5042087;28;20068;-54
2023/07/21 02:46:21;;;;;;;11.18;10.13;;;15.40;99.90;;;;;;5033548;28;20062;-55
2023/07/21 02:48:47;;;;;;;11.80;10.40;;;15.30;99.90;;;;;;5047422;28;20043;-55
2023/07/21 02:51:12;;;;;;;11.77;10.65;;;15.20;99.90;;;;;;5043382;28;20037;-55
2023/07/21 02:53:38;;;;;;;13.10;11.80;;;15.20;99.90;;;;;;5040368;28;20052;-54
2023/07/21 02:56:05;;;;;;;14.07;12.23;;;15.20;99.90;;;;;;5047105;28;20447;-55
2023/07/21 02:58:32;;;;;;;14.25;12.85;;;15.30;99.90;;;;;;5040880;28;20472;-55
2023/07/21 03:00:58;;;;;;;14.63;13.13;;;15.30;99.90;;;;;;5040249;28;20542;-55
2023/07/21 03:03:25;;;;;;;14.77;13.27;;;15.30;99.90;;;;;;5041714;28;20044;-55
2023/07/21 03:05:51;;;;;;;14.95;13.65;;;15.20;99.90;;;;;;5038317;28;20072;-55
2023/07/21 03:08:19;;;;;;;21.85;18.13;;;15.20;99.90;;;;;;5039430;28;20063;-54
2023/07/21 03:10:45;;;;;;;21.92;18.83;;;15.20;99.90;;;;;;5042651;28;20033;-58
2023/07/21 03:13:12;;;;;;;24.73;19.30;;;15.20;99.90;;;;;;5040517;28;20025;-57
2023/07/21 03:15:38;;;;;;;18.00;15.43;;;15.20;99.90;;;;;;5041961;28;20495;-60
2023/07/21 03:18:04;;;;;;;15.65;13.93;;;15.20;99.90;;;;;;5040325;28;20048;-55
2023/07/21 03:20:30;;;;;;;15.80;14.10;;;15.10;99.90;;;;;;5043614;28;20064;-55
2023/07/21 03:22:56;;;;;;;16.73;13.73;;;15.10;99.90;;;;;;5035859;28;20265;-54
2023/07/21 03:25:21;;;;;;;15.88;14.18;;;15.10;99.90;;;;;;5037645;28;20126;-55
2023/07/21 03:27:47;;;;;;;15.45;13.63;;;15.10;99.90;;;;;;5042625;28;20033;-55
2023/07/21 03:30:14;;;;;;;17.02;15.23;;;15.00;99.90;;;;;;5037155;28;20025;-54
2023/07/21 03:32:40;;;;;;;16.60;14.88;;;14.90;99.90;;;;;;5042957;28;20382;-54
2023/07/21 03:35:06;;;;;;;15.75;14.15;;;14.90;99.90;;;;;;5040596;28;20052;-54
2023/07/21 03:37:36;;;;;;;15.55;14.13;;;14.90;99.90;;;;;;5041009;28;20128;-55
2023/07/21 03:40:06;;;;;;;14.77;13.27;;;14.90;99.90;;;;;;5043980;28;20036;-55
2023/07/21 03:42:35;;;;;;;15.23;13.63;;;14.90;99.90;;;;;;5043332;28;20036;-54
2023/07/21 03:45:04;;;;;;;15.95;14.25;;;15.00;99.90;;;;;;5040654;28;20501;-54
2023/07/21 03:47:33;;;;;;;13.88;12.48;;;14.90;99.90;;;;;;5031791;28;20056;-55
2023/07/21 03:49:59;;;;;;;15.77;12.85;;;14.80;99.90;;;;;;5039935;28;20056;-56
2023/07/21 03:52:27;;;;;;;14.35;12.82;;;14.80;99.90;;;;;;5042836;28;20084;-55
2023/07/21 03:54:52;;;;;;;14.27;12.73;;;14.70;99.90;;;;;;5036425;28;20488;-53
2023/07/21 03:57:19;;;;;;;13.80;12.50;;;14.70;99.90;;;;;;5045871;28;20067;-54
2023/07/21 03:59:45;;;;;;;13.45;12.15;;;14.70;99.90;;;;;;5039804;28;20496;-55
2023/07/21 04:02:11;;;;;;;14.00;12.60;;;14.60;99.90;;;;;;5030432;28;20061;-53
2023/07/21 04:04:36;;;;;;;14.27;12.77;;;14.70;99.90;;;;;;5043372;28;20071;-55
2023/07/21 04:07:05;;;;;;;15.48;13.88;;;14.70;99.90;;;;;;5042890;28;20068;-54
2023/07/21 04:09:31;;;;;;;14.30;12.90;;;14.70;99.90;;;;;;5037225;28;20128;-55
2023/07/21 04:11:57;;;;;;;16.35;13.70;;;14.70;99.90;;;;;;5037741;28;20617;-55
2023/07/21 04:14:23;;;;;;;14.68;12.98;;;14.70;99.90;;;;;;5036382;28;20047;-54
2023/07/21 04:16:48;;;;;;;22.88;13.40;;;14.70;99.90;;;;;;5037450;28;20120;-55
2023/07/21 04:19:14;;;;;;;24.30;14.55;;;14.70;99.90;;;;;;5039131;28;20082;-56
2023/07/21 04:21:39;;;;;;;15.88;14.27;;;14.80;99.90;;;;;;5044813;28;20033;-55
2023/07/21 04:24:05;;;;;;;16.85;14.43;;;14.70;99.90;;;;;;5040937;28;20032;-55
2023/07/21 04:26:31;;;;;;;16.45;14.85;;;14.80;99.90;;;;;;5038921;28;20094;-55
2023/07/21 04:28:57;;;;;;;18.27;14.43;;;14.90;99.90;;;;;;5040908;28;20481;-52
2023/07/21 04:31:28;;;;;;;15.50;14.00;;;15.00;99.90;;;;;;5042443;28;20501;-56
2023/07/21 04:33:54;;;;;;;17.30;15.73;;;15.00;99.90;;;;;;5042296;28;20560;-54
2023/07/21 04:36:19;;;;;;;10.35;9.48;;;14.90;99.90;;;;;;5040361;28;20036;-56
2023/07/21 04:38:45;;;;;;;15.57;14.15;;;15.10;99.90;;;;;;5038708;28;20037;-56
2023/07/21 04:41:13;;;;;;;24.13;21.52;;;15.30;99.90;;;;;;5044217;28;20112;-55
2023/07/21 04:43:38;;;;;;;24.05;21.65;;;15.30;99.90;;;;;;5042103;28;20104;-55
2023/07/21 04:46:04;;;;;;;26.15;23.35;;;15.20;99.90;;;;;;5041214;28;20471;-55
2023/07/21 04:48:29;;;;;;;27.10;23.35;;;15.40;99.90;;;;;;5044273;28;20033;-55
2023/07/21 04:50:56;;;;;;;28.08;24.05;;;15.30;99.90;;;;;;5040312;28;20025;-54
2023/07/21 04:53:22;;;;;;;27.13;24.20;;;15.40;99.90;;;;;;5043517;28;20064;-56
2023/07/21 04:55:49;;;;;;;25.58;22.77;;;15.40;99.90;;;;;;5037721;28;20554;-55
2023/07/21 04:58:14;;;;;;;28.30;23.45;;;15.40;99.90;;;;;;5038120;28;20040;-55
2023/07/21 05:00:40;;;;;;;25.90;23.20;;;15.30;99.90;;;;;;5032648;28;20120;-55
2023/07/21 05:03:06;;;;;;;27.67;23.85;;;15.30;99.90;;;;;;5043339;28;20029;-53
2023/07/21 05:05:35;;;;;;;29.42;25.05;;;15.30;99.90;;;;;;5034490;28;20488;-54
2023/07/21 05:08:01;;;;;;;32.10;25.35;;;15.30;99.90;;;;;;5040476;28;20103;-55
2023/07/21 05:10:27;;;;;;;31.95;26.08;;;15.30;99.90;;;;;;5035335;28;20037;-55
2023/07/21 05:12:53;;;;;;;35.58;28.80;;;15.20;99.90;;;;;;5032638;28;20037;-55
2023/07/21 05:15:18;;;;;;;40.53;30.70;;;15.00;99.90;;;;;;5034069;28;20032;-56
2023/07/21 05:17:44;;;;;;;37.95;29.73;;;15.30;99.90;;;;;;5039981;28;20029;-56
2023/07/21 05:20:11;;;;;;;40.50;32.33;;;15.50;99.90;;;;;;5045047;28;20110;-56
2023/07/21 05:22:37;;;;;;;33.78;28.80;;;15.50;99.90;;;;;;5039330;28;20472;-57
2023/07/21 05:25:06;;;;;;;40.60;31.88;;;15.60;99.90;;;;;;5038997;28;20029;-56
2023/07/21 05:27:32;;;;;;;40.42;32.67;;;15.80;99.90;;;;;;5035052;28;20469;-56
2023/07/21 05:30:00;;;;;;;42.42;33.95;;;15.90;99.90;;;;;;5037066;28;20036;-55
2023/07/21 05:32:26;;;;;;;43.75;33.33;;;16.00;99.90;;;;;;5044344;28;20445;-56
2023/07/21 05:34:51;;;;;;;42.45;32.38;;;16.00;99.90;;;;;;5041216;28;20037;-55
2023/07/21 05:37:17;;;;;;;45.35;33.28;;;15.80;99.90;;;;;;5038356;28;20046;-56
2023/07/21 05:39:43;;;;;;;41.85;33.30;;;15.70;99.90;;;;;;5036948;28;20029;-56
2023/07/21 05:42:08;;;;;;;45.05;33.42;;;15.70;99.90;;;;;;5037608;28;20025;-55
2023/07/21 05:44:34;;;;;;;44.35;34.42;;;15.70;99.90;;;;;;5034895;28;20075;-54
2023/07/21 05:47:00;;;;;;;41.03;32.03;;;15.80;99.90;;;;;;5036433;28;20044;-56
2023/07/21 05:49:26;;;;;;;40.53;32.65;;;15.80;99.90;;;;;;5034958;28;20033;-55
2023/07/21 05:51:52;;;;;;;48.22;35.42;;;16.00;99.90;;;;;;5041382;28;20035;-55
2023/07/21 05:54:18;;;;;;;42.78;33.65;;;16.20;99.90;;;;;;5041534;28;20055;-56
2023/07/21 05:56:44;;;;;;;42.72;33.15;;;16.30;99.90;;;;;;5034920;28;20391;-55
2023/07/21 05:59:09;;;;;;;41.95;31.85;;;16.50;99.90;;;;;;5032122;28;20250;-54
2023/07/21 06:01:36;;;;;;;49.42;33.65;;;16.50;99.90;;;;;;5036173;28;20029;-56
2023/07/21 06:04:03;;;;;;;42.10;32.03;;;16.60;99.90;;;;;;5036329;28;20059;-55
2023/07/21 06:06:29;;;;;;;40.78;30.65;;;16.70;99.90;;;;;;5033466;28;20484;-56
2023/07/21 06:08:55;;;;;;;37.42;29.48;;;16.50;99.90;;;;;;5040860;28;20441;-57
2023/07/21 06:11:22;;;;;;;36.38;29.02;;;16.40;99.90;;;;;;5037059;28;20071;-56
2023/07/21 06:13:48;;;;;;;33.03;26.15;;;16.40;99.90;;;;;;5031372;28;20050;-56
2023/07/21 06:16:13;;;;;;;35.60;27.83;;;16.30;99.90;;;;;;5034068;28;20041;-56
2023/07/21 06:18:39;;;;;;;31.75;26.17;;;16.30;99.90;;;;;;5043356;28;20034;-55
2023/07/21 06:21:04;;;;;;;34.67;25.27;;;16.40;99.90;;;;;;5040900;28;20112;-55
2023/07/21 06:23:30;;;;;;;32.33;26.10;;;16.30;99.90;;;;;;5038048;28;20060;-56
2023/07/21 06:25:56;;;;;;;31.98;24.58;;;16.40;99.90;;;;;;5038257;28;20159;-57
2023/07/21 06:28:21;;;;;;;34.55;25.92;;;16.40;99.90;;;;;;5035370;28;20572;-55
2023/07/21 06:30:47;;;;;;;29.42;25.10;;;16.50;99.90;;;;;;5038161;28;20284;-56
2023/07/21 06:33:13;;;;;;;31.02;25.58;;;16.50;99.90;;;;;;5040016;28;20122;-58
2023/07/21 06:35:39;;;;;;;34.20;25.88;;;16.70;99.90;;;;;;5038314;28;20061;-56
2023/07/21 06:38:07;;;;;;;31.70;26.02;;;17.00;99.90;;;;;;5039422;28;20037;-55
2023/07/21 06:40:32;;;;;;;32.42;25.48;;;17.10;99.90;;;;;;5039789;28;20114;-56
2023/07/21 06:42:58;;;;;;;34.15;26.65;;;17.20;99.90;;;;;;5039129;28;20033;-59
2023/07/21 06:45:24;;;;;;;33.78;25.10;;;17.30;99.90;;;;;;5039375;28;21214;-56
2023/07/21 06:47:50;;;;;;;35.50;27.08;;;17.50;99.90;;;;;;5038990;28;20045;-56
2023/07/21 06:50:16;;;;;;;36.58;27.40;;;17.60;99.90;;;;;;5035789;28;20405;-56
2023/07/21 06:52:42;;;;;;;36.88;26.30;;;17.70;99.90;;;;;;5037378;28;20037;-56
2023/07/21 06:55:08;;;;;;;42.72;26.90;;;17.70;99.90;;;;;;5032981;28;20473;-57
2023/07/21 06:57:34;;;;;;;37.70;26.73;;;17.70;99.90;;;;;;5039587;28;20112;-56
2023/07/21 06:59:59;;;;;;;37.08;26.20;;;17.90;99.90;;;;;;5032460;28;20123;-56
2023/07/21 07:02:25;;;;;;;31.27;24.13;;;18.00;99.90;;;;;;5037165;28;20677;-56
2023/07/21 07:04:53;;;;;;;26.08;21.27;;;18.20;99.90;;;;;;5037951;28;20212;-57
2023/07/21 07:07:19;;;;;;;29.45;20.90;;;18.20;99.90;;;;;;5036085;28;20049;-53
2023/07/21 07:09:45;;;;;;;29.58;20.55;;;18.20;99.90;;;;;;5035801;28;20480;-56
2023/07/21 07:12:10;;;;;;;24.70;20.42;;;18.30;99.90;;;;;;5039025;28;20037;-57
2023/07/21 07:14:36;;;;;;;25.13;19.38;;;18.30;99.90;;;;;;5040795;28;20500;-57
2023/07/21 07:17:02;;;;;;;24.17;18.38;;;18.40;99.90;;;;;;5038639;28;20060;-56
2023/07/21 07:19:28;;;;;;;24.10;19.17;;;18.60;99.90;;;;;;5040735;28;20560;-56
2023/07/21 07:21:53;;;;;;;26.48;19.70;;;18.60;99.90;;;;;;5039818;28;20065;-56
2023/07/21 07:24:20;;;;;;;23.55;19.42;;;18.70;99.90;;;;;;5037694;28;20021;-55
2023/07/21 07:26:46;;;;;;;23.30;18.45;;;18.80;99.90;;;;;;5036814;28;20378;-58
2023/07/21 07:29:12;;;;;;;27.77;19.55;;;18.90;99.90;;;;;;5042653;28;20448;-56
2023/07/21 07:31:38;;;;;;;26.10;17.33;;;19.10;99.90;;;;;;5038201;28;20352;-56
2023/07/21 07:34:04;;;;;;;23.10;18.23;;;19.20;99.90;;;;;;5032525;28;20246;-58
2023/07/21 07:36:30;;;;;;;23.38;16.95;;;19.30;99.90;;;;;;5061838;28;20332;-59
2023/07/21 07:38:55;;;;;;;21.33;15.75;;;19.30;99.90;;;;;;5045961;28;20036;-55
2023/07/21 07:41:21;;;;;;;20.90;17.20;;;19.10;99.90;;;;;;5039658;28;20059;-55
2023/07/21 07:43:47;;;;;;;18.13;14.35;;;19.00;99.90;;;;;;5038026;28;20037;-60
2023/07/21 07:46:13;;;;;;;20.20;15.85;;;19.10;99.90;;;;;;5041529;28;20034;-60
2023/07/21 07:48:38;;;;;;;22.98;16.05;;;19.30;99.90;;;;;;5043237;28;20061;-56
2023/07/21 07:51:05;;;;;;;21.08;15.13;;;19.30;99.90;;;;;;5040457;28;20118;-58
2023/07/21 07:53:35;;;;;;;18.70;14.15;;;19.20;99.90;;;;;;5042220;28;20049;-56
2023/07/21 07:56:01;;;;;;;17.48;14.07;;;19.20;99.90;;;;;;5038287;28;20618;-56
2023/07/21 07:58:27;;;;;;;26.88;19.33;;;19.20;99.90;;;;;;5029705;28;20443;-55
2023/07/21 08:00:58;;;;;;;21.80;15.82;;;19.10;99.90;;;;;;5034425;28;20041;-55
2023/07/21 08:03:25;;;;;;;18.58;15.68;;;19.20;99.90;;;;;;5038560;28;20714;-53
2023/07/21 08:05:51;;;;;;;21.63;15.85;;;19.40;99.90;;;;;;5039036;28;20029;-52
2023/07/21 08:08:18;;;;;;;21.27;16.35;;;19.60;99.90;;;;;;5039762;28;20501;-53
2023/07/21 08:10:47;;;;;;;21.45;16.40;;;19.60;99.90;;;;;;5043256;28;20032;-54
2023/07/21 08:13:13;;;;;;;19.77;16.30;;;19.70;99.90;;;;;;5041285;28;20040;-54
2023/07/21 08:15:43;;;;;;;19.80;15.45;;;19.80;99.90;;;;;;5039566;28;20062;-54
2023/07/21 08:18:11;;;;;;;21.30;15.60;;;20.00;99.90;;;;;;5040823;28;20041;-54
2023/07/21 08:20:40;;;;;;;23.05;15.75;;;20.00;99.90;;;;;;5045800;28;20047;-54
2023/07/21 08:23:06;;;;;;;18.73;15.13;;;20.10;99.90;;;;;;5036497;28;20033;-55
2023/07/21 08:25:32;;;;;;;18.15;14.50;;;20.00;99.90;;;;;;5041597;28;20583;-56
2023/07/21 08:28:03;;;;;;;17.42;12.77;;;20.00;99.90;;;;;;5039300;28;20513;-55
2023/07/21 08:30:29;;;;;;;18.25;14.93;;;20.20;99.90;;;;;;5043074;28;20032;-54
2023/07/21 08:32:58;;;;;;;19.25;13.95;;;20.30;99.90;;;;;;5042263;28;20106;-54
2023/07/21 08:35:24;;;;;;;16.70;13.75;;;20.40;99.90;;;;;;5044824;28;20540;-55
2023/07/21 08:37:49;;;;;;;18.77;13.43;;;20.50;99.90;;;;;;5040039;28;20059;-54
2023/07/21 08:40:16;;;;;;;21.75;16.83;;;20.50;99.90;;;;;;5040964;28;20116;-55
2023/07/21 08:42:42;;;;;;;16.08;12.52;;;20.50;99.90;;;;;;5042224;28;20321;-56
2023/07/21 08:45:08;;;;;;;12.85;10.25;;;20.60;99.90;;;;;;5041942;28;20432;-54
2023/07/21 08:47:34;;;;;;;13.52;9.93;;;20.60;99.90;;;;;;5042229;28;20065;-55
2023/07/21 08:50:01;;;;;;;13.88;10.43;;;20.70;99.90;;;;;;5042141;28;20061;-54
2023/07/21 08:52:28;;;;;;;12.52;9.13;;;20.50;99.90;;;;;;5033039;28;20049;-55
2023/07/21 08:54:53;;;;;;;13.07;8.40;;;20.30;99.90;;;;;;5037400;28;20056;-53
2023/07/21 08:57:19;;;;;;;13.50;8.70;;;20.30;99.90;;;;;;5039128;28;20030;-55
2023/07/21 08:59:45;;;;;;;14.00;9.48;;;20.20;99.90;;;;;;5037905;28;20021;-56
2023/07/21 09:02:11;;;;;;;10.18;8.50;;;20.00;99.90;;;;;;5043100;28;20496;-55
2023/07/21 09:04:37;;;;;;;12.73;9.75;;;20.20;99.90;;;;;;5039430;28;20128;-55
2023/07/21 09:07:03;;;;;;;13.90;10.50;;;20.20;99.90;;;;;;5041449;28;20865;-54
2023/07/21 09:09:31;;;;;;;10.32;8.60;;;19.90;99.90;;;;;;5031090;28;20044;-53
2023/07/21 09:12:08;;;;;;;9.32;7.00;;;20.30;99.90;;;;;;5038528;28;20486;-53
2023/07/21 09:14:36;;;;;;;11.07;9.75;;;20.60;99.90;;;;;;5039095;28;20074;-55
2023/07/21 09:17:05;;;;;;;12.52;8.77;;;20.60;99.90;;;;;;5042091;28;20562;-55
2023/07/21 09:19:34;;;;;;;10.25;7.80;;;20.70;99.90;;;;;;5041084;28;20048;-56
2023/07/21 09:22:00;;;;;;;10.23;7.38;;;20.90;99.90;;;;;;5043646;28;20065;-55
2023/07/21 09:24:25;;;;;;;10.88;7.20;;;20.90;99.90;;;;;;5043750;28;20064;-56
2023/07/21 09:27:10;;;;;;;4.97;4.47;;;20.90;99.90;;;;;;5043037;28;20032;-55
2023/07/21 09:29:36;;;;;;;7.15;5.45;;;21.00;99.90;;;;;;5040303;28;20048;-54
2023/07/21 09:32:03;;;;;;;9.15;6.60;;;21.00;99.90;;;;;;5042387;28;20041;-52
2023/07/21 09:34:29;;;;;;;8.27;5.85;;;21.30;99.90;;;;;;5042335;28;20033;-54
2023/07/21 09:36:54;;;;;;;9.02;6.78;;;21.50;99.90;;;;;;5039150;28;20033;-56
2023/07/21 09:39:20;;;;;;;8.90;6.65;;;21.60;99.90;;;;;;5042620;28;20109;-54
2023/07/21 09:41:51;;;;;;;10.75;6.22;;;21.40;99.90;;;;;;5037940;28;20537;-55
2023/07/21 09:44:18;;;;;;;7.60;6.00;;;21.50;99.90;;;;;;5034830;28;20488;-54
2023/07/21 09:46:44;;;;;;;8.55;5.32;;;21.80;99.90;;;;;;5040004;28;20045;-55
2023/07/21 09:49:10;;;;;;;9.15;5.57;;;22.10;99.90;;;;;;5033111;28;20484;-54
2023/07/21 09:51:38;;;;;;;9.38;4.90;;;22.20;99.90;;;;;;5035517;28;20052;-54
2023/07/21 09:54:05;;;;;;;6.32;4.78;;;22.20;99.90;;;;;;5042493;28;20087;-55
2023/07/21 09:56:36;;;;;;;4.05;3.45;;;22.20;99.90;;;;;;5036283;28;20500;-55
2023/07/21 09:59:06;;;;;;;6.60;3.35;;;22.30;99.90;;;;;;5036946;28;20160;-53
2023/07/21 10:01:31;;;;;;;4.90;3.40;;;22.50;99.90;;;;;;5039138;28;20045;-55
2023/07/21 10:03:58;;;;;;;7.93;4.90;;;22.60;99.90;;;;;;5035696;28;20095;-53
2023/07/21 10:06:25;;;;;;;9.13;4.82;;;22.60;99.90;;;;;;5041506;28;20049;-55
2023/07/21 10:08:52;;;;;;;6.30;4.85;;;22.80;99.90;;;;;;5045402;28;20033;-53
2023/07/21 10:11:17;;;;;;;10.93;4.70;;;22.90;99.90;;;;;;5040491;28;20424;-54
2023/07/21 10:13:45;;;;;;;7.18;4.60;;;22.80;99.90;;;;;;5038548;28;20037;-54
2023/07/21 10:16:11;;;;;;;8.70;5.97;;;22.80;99.90;;;;;;5037366;28;20033;-56
2023/07/21 10:19:07;;;;;;;7.18;5.40;;;22.90;99.90;;;;;;5039948;28;20116;-55
2023/07/21 10:21:50;;;;;;;7.35;3.90;;;22.60;99.90;;;;;;5039025;28;20540;-54
2023/07/21 10:24:24;;;;;;;5.22;4.13;;;22.70;99.90;;;;;;5035996;28;20021;-55
2023/07/21 10:26:56;;;;;;;6.60;5.05;;;23.00;99.90;;;;;;5041924;28;20040;-55
2023/07/21 10:29:21;;;;;;;6.32;3.80;;;23.00;99.90;;;;;;5033633;28;20044;-55
2023/07/21 10:31:52;;;;;;;5.63;3.97;;;22.70;99.90;;;;;;5042624;28;20045;-55
2023/07/21 10:34:18;;;;;;;6.38;4.00;;;22.70;99.90;;;;;;5037397;28;20577;-55
2023/07/21 10:36:53;;;;;;;5.13;4.03;;;22.70;99.90;;;;;;5041725;28;20037;-55
2023/07/21 10:39:21;;;;;;;5.35;3.15;;;22.80;99.90;;;;;;5037821;28;20075;-54
2023/07/21 10:41:50;;;;;;;5.72;3.83;;;22.70;99.90;;;;;;5038745;28;20053;-55
2023/07/21 10:44:16;;;;;;;6.30;3.95;;;22.40;99.90;;;;;;5044476;28;20032;-56
2023/07/21 10:46:44;;;;;;;5.72;3.80;;;23.00;99.90;;;;;;5038637;28;20087;-55
2023/07/21 10:49:15;;;;;;;6.47;4.07;;;22.50;99.90;;;;;;5040925;28;20365;-55
2023/07/21 10:51:46;;;;;;;7.18;4.10;;;22.70;99.90;;;;;;5041282;28;20500;-55
2023/07/21 10:54:13;;;;;;;5.70;3.63;;;22.70;99.90;;;;;;5046692;28;20470;-55
2023/07/21 10:56:41;;;;;;;6.00;3.53;;;22.70;99.90;;;;;;5038024;28;20095;-56
2023/07/21 10:59:08;;;;;;;8.40;5.72;;;22.70;99.90;;;;;;5041304;28;20071;-54
2023/07/21 11:01:38;;;;;;;6.10;4.07;;;22.50;99.90;;;;;;5044230;28;20818;-53
2023/07/21 11:04:04;;;;;;;5.20;3.83;;;22.50;99.90;;;;;;5043121;28;20615;-54
2023/07/21 11:06:30;;;;;;;7.28;4.47;;;22.50;99.90;;;;;;5041498;28;20045;-54
2023/07/21 11:08:55;;;;;;;5.93;4.00;;;22.50;99.90;;;;;;5042592;28;20832;-54
2023/07/21 11:11:21;;;;;;;8.85;4.18;;;22.50;99.90;;;;;;5041461;28;20048;-53
2023/07/21 11:13:47;;;;;;;8.27;4.78;;;22.50;99.90;;;;;;5045909;28;20037;-52
2023/07/21 11:16:13;;;;;;;5.47;4.43;;;22.20;99.90;;;;;;5043963;28;20056;-53
2023/07/21 11:18:42;;;;;;;10.40;5.03;;;22.30;99.90;;;;;;5044996;28;20116;-53
2023/07/21 11:21:08;;;;;;;5.45;4.20;;;22.10;99.90;;;;;;5042557;28;20033;-53
2023/07/21 11:23:33;;;;;;;9.05;4.90;;;22.20;99.90;;;;;;5042719;28;20796;-52
2023/07/21 11:26:06;;;;;;;9.55;4.95;;;22.30;99.90;;;;;;5041492;28;20040;-53
2023/07/21 11:28:33;;;;;;;5.90;4.60;;;22.40;99.90;;;;;;5042169;28;20126;-51
2023/07/21 11:31:00;;;;;;;7.00;4.78;;;22.50;99.90;;;;;;5044360;28;20029;-52
2023/07/21 11:33:46;;;;;;;5.25;4.35;;;22.60;99.90;;;;;;5044404;28;20079;-54
2023/07/21 11:36:23;;;;;;;6.53;3.75;;;22.70;99.90;;;;;;5040683;28;20044;-54
2023/07/21 11:39:03;;;;;;;4.63;3.53;;;22.70;99.90;;;;;;5039077;28;20176;-55
2023/07/21 11:41:40;;;;;;;5.00;3.60;;;22.80;99.90;;;;;;5038775;28;20037;-53
2023/07/21 11:44:11;;;;;;;6.10;3.38;;;22.60;99.90;;;;;;5033655;28;20033;-53
2023/07/21 11:46:38;;;;;;;5.32;4.03;;;22.30;99.90;;;;;;5035111;28;20098;-53
2023/07/21 11:49:10;;;;;;;6.90;4.15;;;22.00;99.90;;;;;;5036919;28;20453;-54
2023/07/21 11:51:43;;;;;;;4.93;3.70;;;22.00;99.90;;;;;;5043628;28;20038;-53
2023/07/21 11:54:17;;;;;;;7.53;5.50;;;21.90;99.90;;;;;;5040974;28;20055;-53
2023/07/21 11:56:43;;;;;;;5.78;4.40;;;22.00;99.90;;;;;;5037380;28;20452;-54
2023/07/21 11:59:09;;;;;;;5.38;3.95;;;22.20;99.90;;;;;;5035404;28;20053;-53
2023/07/21 12:01:35;;;;;;;8.85;5.18;;;22.50;99.90;;;;;;5037382;28;20550;-53
2023/07/21 12:04:01;;;;;;;6.80;5.30;;;22.60;99.90;;;;;;5031299;28;20064;-53
2023/07/21 12:06:26;;;;;;;8.32;4.00;;;22.50;99.90;;;;;;5039723;28;20048;-52
2023/07/21 12:08:52;;;;;;;8.02;5.22;;;22.70;99.90;;;;;;5034455;28;20041;-53
2023/07/21 12:11:17;;;;;;;6.90;4.00;;;22.80;99.90;;;;;;5043512;28;20033;-53
2023/07/21 12:13:43;;;;;;;6.35;4.30;;;23.00;99.90;;;;;;5040520;28;20060;-54
2023/07/21 12:16:09;;;;;;;5.03;4.32;;;23.10;99.90;;;;;;5044622;28;20025;-54
2023/07/21 12:18:34;;;;;;;5.40;4.10;;;23.30;99.90;;;;;;5041257;28;20444;-55
2023/07/21 12:21:00;;;;;;;5.18;4.10;;;23.60;99.90;;;;;;5041794;28;20036;-56
2023/07/21 12:23:25;;;;;;;5.35;4.53;;;23.40;99.90;;;;;;5038078;28;20037;-54
2023/07/21 12:25:52;;;;;;;4.85;3.70;;;23.20;99.90;;;;;;5038433;28;20033;-56
2023/07/21 12:28:17;;;;;;;4.05;3.45;;;23.10;99.90;;;;;;5042676;28;20116;-55
2023/07/21 12:30:43;;;;;;;6.65;3.95;;;22.80;99.90;;;;;;5042537;28;20262;-54
2023/07/21 12:33:09;;;;;;;9.15;6.25;;;22.80;99.90;;;;;;5043853;28;20492;-56
2023/07/21 12:35:34;;;;;;;8.70;6.82;;;22.50;99.90;;;;;;5034411;28;20037;-54